sensor_id;sensor_type;location;lat;lon;timestamp;pressure;altitude;pressure_sealevel;temperature;humidity
72096;BME280;59968;51.084;16.748;2023-05-23T00:02:03;99961.24;;;16.44;53.66
72096;BME280;59968;51.084;16.748;2023-05-23T00:04:39;99958.78;;;16.41;53.76
72096;BME280;59968;51.084;16.748;2023-05-23T00:07:11;99953.56;;;16.36;53.78
72096;BME280;59968;51.084;16.748;2023-05-23T00:09:40;99954.73;;;16.33;53.92
72096;BME280;59968;51.084;16.748;2023-05-23T00:12:14;99950.13;;;16.29;54.07
72096;BME280;59968;51.084;16.748;2023-05-23T00:14:46;99946.05;;;16.24;54.22
72096;BME280;59968;51.084;16.748;2023-05-23T00:17:17;99943.36;;;16.20;54.37
72096;BME280;59968;51.084;16.748;2023-05-23T00:19:47;99944.48;;;16.15;54.43
72096;BME280;59968;51.084;16.748;2023-05-23T00:22:23;99943.36;;;16.11;54.58
72096;BME280;59968;51.084;16.748;2023-05-23T00:25:06;99944.05;;;16.05;54.87
72096;BME280;59968;51.084;16.748;2023-05-23T00:27:38;99944.32;;;16.01;54.99
72096;BME280;59968;51.084;16.748;2023-05-23T00:30:13;99933.63;;;15.93;55.04
72096;BME280;59968;51.084;16.748;2023-05-23T00:32:58;99943.59;;;15.93;55.09
72096;BME280;59968;51.084;16.748;2023-05-23T00:35:33;99939.80;;;15.89;55.26
72096;BME280;59968;51.084;16.748;2023-05-23T00:38:05;99940.39;;;15.85;55.46
72096;BME280;59968;51.084;16.748;2023-05-23T00:40:43;99936.27;;;15.80;55.60
72096;BME280;59968;51.084;16.748;2023-05-23T00:43:52;99936.12;;;15.78;55.76
72096;BME280;59968;51.084;16.748;2023-05-23T00:46:22;99937.30;;;15.74;55.77
72096;BME280;59968;51.084;16.748;2023-05-23T00:48:51;99935.52;;;15.71;55.92
72096;BME280;59968;51.084;16.748;2023-05-23T00:51:21;99937.55;;;15.68;55.90
72096;BME280;59968;51.084;16.748;2023-05-23T00:53:49;99926.42;;;15.59;56.13
72096;BME280;59968;51.084;16.748;2023-05-23T00:56:21;99935.05;;;15.62;56.22
72096;BME280;59968;51.084;16.748;2023-05-23T00:58:50;99933.05;;;15.61;56.24
72096;BME280;59968;51.084;16.748;2023-05-23T01:01:22;99933.34;;;15.59;56.34
72096;BME280;59968;51.084;16.748;2023-05-23T01:03:57;99935.10;;;15.57;56.36
72096;BME280;59968;51.084;16.748;2023-05-23T01:06:29;99934.15;;;15.56;56.40
72096;BME280;59968;51.084;16.748;2023-05-23T01:09:00;99935.29;;;15.54;56.43
72096;BME280;59968;51.084;16.748;2023-05-23T01:11:42;99934.58;;;15.53;56.45
72096;BME280;59968;51.084;16.748;2023-05-23T01:14:21;99933.11;;;15.49;56.61
72096;BME280;59968;51.084;16.748;2023-05-23T01:17:18;99932.61;;;15.47;56.89
72096;BME280;59968;51.084;16.748;2023-05-23T01:20:07;99935.23;;;15.42;56.90
72096;BME280;59968;51.084;16.748;2023-05-23T01:23:26;99936.67;;;15.38;57.10
72096;BME280;59968;51.084;16.748;2023-05-23T01:26:03;99931.42;;;15.32;57.01
72096;BME280;59968;51.084;16.748;2023-05-23T01:28:49;99936.29;;;15.30;57.09
72096;BME280;59968;51.084;16.748;2023-05-23T01:31:26;99936.60;;;15.26;57.32
72096;BME280;59968;51.084;16.748;2023-05-23T01:34:00;99935.20;;;15.21;57.37
72096;BME280;59968;51.084;16.748;2023-05-23T01:36:43;99938.47;;;15.18;57.58
72096;BME280;59968;51.084;16.748;2023-05-23T01:39:29;99938.30;;;15.15;57.61
72096;BME280;59968;51.084;16.748;2023-05-23T01:42:02;99939.10;;;15.09;57.78
72096;BME280;59968;51.084;16.748;2023-05-23T01:44:37;99932.84;;;15.05;57.75
72096;BME280;59968;51.084;16.748;2023-05-23T01:47:20;99924.98;;;15.02;58.00
72096;BME280;59968;51.084;16.748;2023-05-23T01:49:56;99919.44;;;14.99;58.08
72096;BME280;59968;51.084;16.748;2023-05-23T01:52:31;99916.46;;;14.97;58.22
72096;BME280;59968;51.084;16.748;2023-05-23T01:55:05;99915.77;;;14.94;58.17
72096;BME280;59968;51.084;16.748;2023-05-23T01:57:45;99909.30;;;14.90;58.24
72096;BME280;59968;51.084;16.748;2023-05-23T02:00:28;99904.94;;;14.86;58.57
72096;BME280;59968;51.084;16.748;2023-05-23T02:03:07;99900.90;;;14.81;58.59
72096;BME280;59968;51.084;16.748;2023-05-23T02:05:42;99895.92;;;14.76;58.83
72096;BME280;59968;51.084;16.748;2023-05-23T02:08:42;99897.00;;;14.71;58.87
72096;BME280;59968;51.084;16.748;2023-05-23T02:11:17;99890.41;;;14.63;59.12
72096;BME280;59968;51.084;16.748;2023-05-23T02:14:03;99885.85;;;14.57;59.31
72096;BME280;59968;51.084;16.748;2023-05-23T02:16:35;99883.55;;;14.52;59.27
72096;BME280;59968;51.084;16.748;2023-05-23T02:19:09;99883.71;;;14.48;59.53
72096;BME280;59968;51.084;16.748;2023-05-23T02:21:44;99884.34;;;14.44;59.73
72096;BME280;59968;51.084;16.748;2023-05-23T02:24:18;99876.22;;;14.38;59.78
72096;BME280;59968;51.084;16.748;2023-05-23T02:27:00;99880.22;;;14.37;59.73
72096;BME280;59968;51.084;16.748;2023-05-23T02:29:47;99879.39;;;14.36;59.81
72096;BME280;59968;51.084;16.748;2023-05-23T02:32:21;99879.03;;;14.36;59.99
72096;BME280;59968;51.084;16.748;2023-05-23T02:35:05;99876.57;;;14.34;59.99
72096;BME280;59968;51.084;16.748;2023-05-23T02:37:52;99868.71;;;14.33;60.10
72096;BME280;59968;51.084;16.748;2023-05-23T02:40:41;99873.54;;;14.33;60.13
72096;BME280;59968;51.084;16.748;2023-05-23T02:43:23;99870.01;;;14.32;60.22
72096;BME280;59968;51.084;16.748;2023-05-23T02:45:51;99868.44;;;14.31;60.16
72096;BME280;59968;51.084;16.748;2023-05-23T02:48:23;99869.94;;;14.32;60.23
72096;BME280;59968;51.084;16.748;2023-05-23T02:50:55;99865.70;;;14.29;60.25
72096;BME280;59968;51.084;16.748;2023-05-23T02:53:34;99863.45;;;14.28;60.35
72096;BME280;59968;51.084;16.748;2023-05-23T02:56:04;99856.47;;;14.26;60.48
72096;BME280;59968;51.084;16.748;2023-05-23T02:59:03;99850.94;;;14.22;60.52
72096;BME280;59968;51.084;16.748;2023-05-23T03:01:55;99850.38;;;14.20;60.46
72096;BME280;59968;51.084;16.748;2023-05-23T03:04:27;99848.19;;;14.19;60.60
72096;BME280;59968;51.084;16.748;2023-05-23T03:07:09;99847.00;;;14.18;60.76
72096;BME280;59968;51.084;16.748;2023-05-23T03:09:58;99846.68;;;14.18;60.86
72096;BME280;59968;51.084;16.748;2023-05-23T03:12:37;99849.84;;;14.19;60.80
72096;BME280;59968;51.084;16.748;2023-05-23T03:15:41;99850.98;;;14.21;61.03
72096;BME280;59968;51.084;16.748;2023-05-23T03:18:21;99849.54;;;14.22;61.00
72096;BME280;59968;51.084;16.748;2023-05-23T03:21:18;99847.45;;;14.24;60.85
72096;BME280;59968;51.084;16.748;2023-05-23T03:23:47;99836.55;;;14.22;61.18
72096;BME280;59968;51.084;16.748;2023-05-23T03:26:35;99841.53;;;14.29;61.03
72096;BME280;59968;51.084;16.748;2023-05-23T03:29:23;99843.36;;;14.33;61.14
72096;BME280;59968;51.084;16.748;2023-05-23T03:32:09;99839.35;;;14.35;61.04
72096;BME280;59968;51.084;16.748;2023-05-23T03:34:43;99840.11;;;14.38;60.84
72096;BME280;59968;51.084;16.748;2023-05-23T03:37:27;99843.81;;;14.42;60.95
72096;BME280;59968;51.084;16.748;2023-05-23T03:40:02;99842.91;;;14.46;60.94
72096;BME280;59968;51.084;16.748;2023-05-23T03:42:43;99841.08;;;14.48;61.09
72096;BME280;59968;51.084;16.748;2023-05-23T03:45:20;99840.96;;;14.50;61.19
72096;BME280;59968;51.084;16.748;2023-05-23T03:48:06;99844.84;;;14.53;61.28
72096;BME280;59968;51.084;16.748;2023-05-23T03:50:44;99855.04;;;14.58;61.20
72096;BME280;59968;51.084;16.748;2023-05-23T03:53:33;99852.44;;;14.65;61.16
72096;BME280;59968;51.084;16.748;2023-05-23T03:56:08;99851.38;;;14.71;60.90
72096;BME280;59968;51.084;16.748;2023-05-23T03:58:37;99846.91;;;14.76;60.87
72096;BME280;59968;51.084;16.748;2023-05-23T04:01:19;99843.14;;;14.80;60.79
72096;BME280;59968;51.084;16.748;2023-05-23T04:03:51;99839.77;;;14.83;60.84
72096;BME280;59968;51.084;16.748;2023-05-23T04:06:37;99841.25;;;14.85;60.73
72096;BME280;59968;51.084;16.748;2023-05-23T04:09:12;99841.42;;;14.89;60.91
72096;BME280;59968;51.084;16.748;2023-05-23T04:11:47;99843.50;;;14.95;60.92
72096;BME280;59968;51.084;16.748;2023-05-23T04:14:22;99840.39;;;14.98;60.79
72096;BME280;59968;51.084;16.748;2023-05-23T04:16:58;99838.73;;;15.05;60.87
72096;BME280;59968;51.084;16.748;2023-05-23T04:19:34;99838.14;;;15.15;60.90
72096;BME280;59968;51.084;16.748;2023-05-23T04:22:07;99834.55;;;15.26;60.70
72096;BME280;59968;51.084;16.748;2023-05-23T04:24:41;99824.63;;;15.38;60.71
72096;BME280;59968;51.084;16.748;2023-05-23T04:27:13;99818.45;;;15.50;60.40
72096;BME280;59968;51.084;16.748;2023-05-23T04:29:49;99820.67;;;15.62;60.33
72096;BME280;59968;51.084;16.748;2023-05-23T04:32:23;99819.89;;;15.76;60.38
72096;BME280;59968;51.084;16.748;2023-05-23T04:34:53;99816.81;;;15.92;59.90
72096;BME280;59968;51.084;16.748;2023-05-23T04:37:28;99816.69;;;16.06;59.78
72096;BME280;59968;51.084;16.748;2023-05-23T04:40:04;99816.31;;;16.20;59.44
72096;BME280;59968;51.084;16.748;2023-05-23T04:42:44;99816.56;;;16.36;59.16
72096;BME280;59968;51.084;16.748;2023-05-23T04:45:26;99816.80;;;16.50;58.93
72096;BME280;59968;51.084;16.748;2023-05-23T04:48:26;99813.45;;;16.62;58.64
72096;BME280;59968;51.084;16.748;2023-05-23T04:51:07;99798.39;;;16.64;58.15
72096;BME280;59968;51.084;16.748;2023-05-23T04:53:40;99809.31;;;16.80;58.08
72096;BME280;59968;51.084;16.748;2023-05-23T04:56:26;99806.98;;;16.86;58.16
72096;BME280;59968;51.084;16.748;2023-05-23T04:59:04;99803.55;;;16.97;58.12
72096;BME280;59968;51.084;16.748;2023-05-23T05:01:38;99805.26;;;17.10;57.80
72096;BME280;59968;51.084;16.748;2023-05-23T05:04:15;99802.54;;;17.19;57.89
72096;BME280;59968;51.084;16.748;2023-05-23T05:06:45;99800.80;;;17.27;57.95
72096;BME280;59968;51.084;16.748;2023-05-23T05:09:15;99796.38;;;17.35;57.82
72096;BME280;59968;51.084;16.748;2023-05-23T05:11:44;99797.43;;;17.44;57.56
72096;BME280;59968;51.084;16.748;2023-05-23T05:14:16;99796.55;;;17.53;57.54
72096;BME280;59968;51.084;16.748;2023-05-23T05:16:46;99794.03;;;17.63;57.49
72096;BME280;59968;51.084;16.748;2023-05-23T05:19:17;99790.20;;;17.72;57.31
72096;BME280;59968;51.084;16.748;2023-05-23T05:21:48;99789.01;;;17.79;57.42
72096;BME280;59968;51.084;16.748;2023-05-23T05:24:20;99791.67;;;17.90;57.10
72096;BME280;59968;51.084;16.748;2023-05-23T05:26:50;99790.99;;;18.00;56.91
72096;BME280;59968;51.084;16.748;2023-05-23T05:29:19;99793.42;;;18.09;56.57
72096;BME280;59968;51.084;16.748;2023-05-23T05:31:47;99793.34;;;18.18;56.71
72096;BME280;59968;51.084;16.748;2023-05-23T05:34:18;99791.41;;;18.26;56.61
72096;BME280;59968;51.084;16.748;2023-05-23T05:36:49;99791.40;;;18.38;56.34
72096;BME280;59968;51.084;16.748;2023-05-23T05:39:33;99792.06;;;18.54;55.86
72096;BME280;59968;51.084;16.748;2023-05-23T05:42:01;99792.73;;;18.71;55.97
72096;BME280;59968;51.084;16.748;2023-05-23T05:44:31;99795.11;;;18.89;55.62
72096;BME280;59968;51.084;16.748;2023-05-23T05:47:01;99797.25;;;19.09;55.58
72096;BME280;59968;51.084;16.748;2023-05-23T05:49:31;99796.40;;;19.21;54.93
72096;BME280;59968;51.084;16.748;2023-05-23T05:51:59;99795.52;;;19.34;54.74
72096;BME280;59968;51.084;16.748;2023-05-23T05:54:38;99797.36;;;19.46;53.76
72096;BME280;59968;51.084;16.748;2023-05-23T05:57:09;99798.34;;;19.56;53.39
72096;BME280;59968;51.084;16.748;2023-05-23T05:59:40;99801.46;;;19.61;53.09
72096;BME280;59968;51.084;16.748;2023-05-23T06:02:09;99801.36;;;19.64;53.20
72096;BME280;59968;51.084;16.748;2023-05-23T06:04:38;99806.56;;;19.62;52.94
72096;BME280;59968;51.084;16.748;2023-05-23T06:07:07;99801.89;;;19.50;52.93
72096;BME280;59968;51.084;16.748;2023-05-23T06:09:35;99802.11;;;19.37;53.07
72096;BME280;59968;51.084;16.748;2023-05-23T06:12:05;99801.96;;;19.27;53.43
72096;BME280;59968;51.084;16.748;2023-05-23T06:14:34;99806.73;;;19.23;53.79
72096;BME280;59968;51.084;16.748;2023-05-23T06:17:03;99808.56;;;19.22;54.02
72096;BME280;59968;51.084;16.748;2023-05-23T06:19:32;99805.45;;;19.31;54.07
72096;BME280;59968;51.084;16.748;2023-05-23T06:22:07;99802.95;;;19.50;54.09
72096;BME280;59968;51.084;16.748;2023-05-23T06:24:36;99810.70;;;19.76;53.84
72096;BME280;59968;51.084;16.748;2023-05-23T06:27:05;99807.73;;;20.02;53.95
72096;BME280;59968;51.084;16.748;2023-05-23T06:29:34;99803.16;;;20.15;53.39
72096;BME280;59968;51.084;16.748;2023-05-23T06:32:15;99798.29;;;20.23;52.70
72096;BME280;59968;51.084;16.748;2023-05-23T06:35:06;99799.39;;;20.34;52.46
72096;BME280;59968;51.084;16.748;2023-05-23T06:37:56;99802.28;;;20.42;52.51
72096;BME280;59968;51.084;16.748;2023-05-23T06:40:24;99797.07;;;20.49;52.77
72096;BME280;59968;51.084;16.748;2023-05-23T06:42:52;99798.83;;;20.63;52.30
72096;BME280;59968;51.084;16.748;2023-05-23T06:45:45;99792.70;;;20.86;52.21
72096;BME280;59968;51.084;16.748;2023-05-23T06:48:19;99783.42;;;21.09;51.43
72096;BME280;59968;51.084;16.748;2023-05-23T06:50:48;99780.55;;;21.41;51.01
72096;BME280;59968;51.084;16.748;2023-05-23T06:53:17;99775.98;;;21.55;50.59
72096;BME280;59968;51.084;16.748;2023-05-23T06:55:48;99776.45;;;21.64;50.56
72096;BME280;59968;51.084;16.748;2023-05-23T06:58:24;99774.41;;;21.69;50.16
72096;BME280;59968;51.084;16.748;2023-05-23T07:00:55;99779.52;;;21.72;50.18
72096;BME280;59968;51.084;16.748;2023-05-23T07:03:31;99776.92;;;21.72;49.88
72096;BME280;59968;51.084;16.748;2023-05-23T07:06:04;99773.05;;;21.69;49.63
72096;BME280;59968;51.084;16.748;2023-05-23T07:08:33;99771.52;;;21.69;49.76
72096;BME280;59968;51.084;16.748;2023-05-23T07:11:07;99762.05;;;21.70;50.13
72096;BME280;59968;51.084;16.748;2023-05-23T07:13:42;99752.77;;;21.70;51.24
72096;BME280;59968;51.084;16.748;2023-05-23T07:16:22;99743.28;;;21.68;51.73
72096;BME280;59968;51.084;16.748;2023-05-23T07:19:11;99733.50;;;21.62;52.29
72096;BME280;59968;51.084;16.748;2023-05-23T07:21:50;99726.13;;;21.53;52.78
72096;BME280;59968;51.084;16.748;2023-05-23T07:24:19;99737.24;;;21.40;52.97
72096;BME280;59968;51.084;16.748;2023-05-23T07:26:48;99755.38;;;21.31;53.90
72096;BME280;59968;51.084;16.748;2023-05-23T07:29:17;99769.05;;;21.20;54.98
72096;BME280;59968;51.084;16.748;2023-05-23T07:31:50;99769.45;;;21.14;55.33
72096;BME280;59968;51.084;16.748;2023-05-23T07:34:20;99772.46;;;21.11;55.92
72096;BME280;59968;51.084;16.748;2023-05-23T07:36:52;99779.27;;;21.04;56.05
72096;BME280;59968;51.084;16.748;2023-05-23T07:39:21;99788.97;;;21.01;56.39
72096;BME280;59968;51.084;16.748;2023-05-23T07:41:52;99788.54;;;21.01;56.61
72096;BME280;59968;51.084;16.748;2023-05-23T07:44:21;99787.14;;;21.00;56.32
72096;BME280;59968;51.084;16.748;2023-05-23T07:46:53;99779.90;;;20.89;55.90
72096;BME280;59968;51.084;16.748;2023-05-23T07:49:22;99780.39;;;20.81;56.15
72096;BME280;59968;51.084;16.748;2023-05-23T07:51:51;99777.45;;;20.81;57.40
72096;BME280;59968;51.084;16.748;2023-05-23T07:54:19;99779.55;;;20.80;56.45
72096;BME280;59968;51.084;16.748;2023-05-23T07:56:54;99782.42;;;20.76;55.49
72096;BME280;59968;51.084;16.748;2023-05-23T07:59:50;99787.09;;;20.81;56.12
72096;BME280;59968;51.084;16.748;2023-05-23T08:02:20;99794.02;;;20.87;55.02
72096;BME280;59968;51.084;16.748;2023-05-23T08:04:48;99797.83;;;20.91;55.62
72096;BME280;59968;51.084;16.748;2023-05-23T08:07:24;99794.48;;;20.95;55.66
72096;BME280;59968;51.084;16.748;2023-05-23T08:09:58;99784.01;;;21.02;55.15
72096;BME280;59968;51.084;16.748;2023-05-23T08:12:29;99784.95;;;21.11;55.36
72096;BME280;59968;51.084;16.748;2023-05-23T08:15:06;99782.88;;;21.20;55.30
72096;BME280;59968;51.084;16.748;2023-05-23T08:17:41;99786.85;;;21.27;55.36
72096;BME280;59968;51.084;16.748;2023-05-23T08:20:11;99786.98;;;21.31;54.88
72096;BME280;59968;51.084;16.748;2023-05-23T08:22:40;99784.48;;;21.34;55.16
72096;BME280;59968;51.084;16.748;2023-05-23T08:25:09;99786.17;;;21.35;55.78
72096;BME280;59968;51.084;16.748;2023-05-23T08:27:39;99787.86;;;21.33;56.17
72096;BME280;59968;51.084;16.748;2023-05-23T08:30:18;99784.73;;;21.28;56.63
72096;BME280;59968;51.084;16.748;2023-05-23T08:32:55;99787.80;;;21.25;57.52
72096;BME280;59968;51.084;16.748;2023-05-23T08:35:25;99790.55;;;21.24;58.72
72096;BME280;59968;51.084;16.748;2023-05-23T08:37:54;99786.71;;;21.21;59.13
72096;BME280;59968;51.084;16.748;2023-05-23T08:40:26;99783.67;;;21.17;60.16
72096;BME280;59968;51.084;16.748;2023-05-23T08:43:06;99783.09;;;21.18;59.90
72096;BME280;59968;51.084;16.748;2023-05-23T08:45:37;99782.01;;;21.22;59.47
72096;BME280;59968;51.084;16.748;2023-05-23T08:48:07;99781.05;;;21.26;59.38
72096;BME280;59968;51.084;16.748;2023-05-23T08:50:45;99779.40;;;21.29;59.11
72096;BME280;59968;51.084;16.748;2023-05-23T08:53:27;99783.08;;;21.30;59.08
72096;BME280;59968;51.084;16.748;2023-05-23T08:56:02;99784.67;;;21.31;59.90
72096;BME280;59968;51.084;16.748;2023-05-23T08:58:40;99785.68;;;21.27;60.05
72096;BME280;59968;51.084;16.748;2023-05-23T09:01:12;99793.98;;;21.22;60.38
72096;BME280;59968;51.084;16.748;2023-05-23T09:03:46;99803.52;;;21.10;61.00
72096;BME280;59968;51.084;16.748;2023-05-23T09:06:37;99807.39;;;20.97;61.66
72096;BME280;59968;51.084;16.748;2023-05-23T09:09:05;99818.96;;;20.92;61.82
72096;BME280;59968;51.084;16.748;2023-05-23T09:11:35;99816.77;;;20.86;61.78
72096;BME280;59968;51.084;16.748;2023-05-23T09:14:06;99817.09;;;20.79;61.80
72096;BME280;59968;51.084;16.748;2023-05-23T09:16:38;99819.41;;;20.73;61.42
72096;BME280;59968;51.084;16.748;2023-05-23T09:19:13;99820.64;;;20.69;61.40
72096;BME280;59968;51.084;16.748;2023-05-23T09:21:46;99823.75;;;20.64;61.93
72096;BME280;59968;51.084;16.748;2023-05-23T09:24:21;99824.50;;;20.61;62.40
72096;BME280;59968;51.084;16.748;2023-05-23T09:26:49;99828.56;;;20.56;62.89
72096;BME280;59968;51.084;16.748;2023-05-23T09:29:19;99829.83;;;20.52;63.19
72096;BME280;59968;51.084;16.748;2023-05-23T09:31:48;99826.30;;;20.52;63.13
72096;BME280;59968;51.084;16.748;2023-05-23T09:34:17;99826.93;;;20.54;63.53
72096;BME280;59968;51.084;16.748;2023-05-23T09:36:46;99824.77;;;20.58;63.28
72096;BME280;59968;51.084;16.748;2023-05-23T09:39:18;99831.34;;;20.62;63.33
72096;BME280;59968;51.084;16.748;2023-05-23T09:41:53;99827.45;;;20.65;62.90
72096;BME280;59968;51.084;16.748;2023-05-23T09:44:22;99820.55;;;20.65;62.30
72096;BME280;59968;51.084;16.748;2023-05-23T09:46:51;99818.61;;;20.63;62.86
72096;BME280;59968;51.084;16.748;2023-05-23T09:49:21;99818.91;;;20.62;62.44
72096;BME280;59968;51.084;16.748;2023-05-23T09:51:57;99818.23;;;20.60;61.78
72096;BME280;59968;51.084;16.748;2023-05-23T09:54:26;99817.39;;;20.61;61.76
72096;BME280;59968;51.084;16.748;2023-05-23T09:56:58;99819.60;;;20.62;61.47
72096;BME280;59968;51.084;16.748;2023-05-23T09:59:30;99822.65;;;20.64;61.42
72096;BME280;59968;51.084;16.748;2023-05-23T10:02:06;99822.75;;;20.68;61.16
72096;BME280;59968;51.084;16.748;2023-05-23T10:04:38;99817.68;;;20.73;61.35
72096;BME280;59968;51.084;16.748;2023-05-23T10:07:17;99815.93;;;20.79;61.93
72096;BME280;59968;51.084;16.748;2023-05-23T10:09:55;99821.45;;;20.85;61.64
72096;BME280;59968;51.084;16.748;2023-05-23T10:12:48;99814.66;;;20.95;61.67
72096;BME280;59968;51.084;16.748;2023-05-23T10:15:19;99815.40;;;21.08;61.19
72096;BME280;59968;51.084;16.748;2023-05-23T10:20:24;99808.67;;;21.28;60.08
72096;BME280;59968;51.084;16.748;2023-05-23T10:22:55;99809.85;;;21.37;59.93
72096;BME280;59968;51.084;16.748;2023-05-23T10:25:24;99813.98;;;21.47;59.64
72096;BME280;59968;51.084;16.748;2023-05-23T10:27:59;99813.29;;;21.56;59.36
72096;BME280;59968;51.084;16.748;2023-05-23T10:30:32;99805.91;;;21.65;59.14
72096;BME280;59968;51.084;16.748;2023-05-23T10:33:03;99800.10;;;21.74;58.92
72096;BME280;59968;51.084;16.748;2023-05-23T10:35:52;99796.39;;;21.82;58.86
72096;BME280;59968;51.084;16.748;2023-05-23T10:41:20;99800.62;;;22.01;58.14
72096;BME280;59968;51.084;16.748;2023-05-23T10:44:07;99800.11;;;22.11;57.58
72096;BME280;59968;51.084;16.748;2023-05-23T10:46:57;99796.17;;;22.23;57.30
72096;BME280;59968;51.084;16.748;2023-05-23T10:49:43;99797.46;;;22.37;57.29
72096;BME280;59968;51.084;16.748;2023-05-23T10:52:14;99799.80;;;22.53;57.27
72096;BME280;59968;51.084;16.748;2023-05-23T10:54:51;99798.96;;;22.72;56.79
72096;BME280;59968;51.084;16.748;2023-05-23T10:57:26;99795.16;;;22.91;55.94
72096;BME280;59968;51.084;16.748;2023-05-23T10:59:55;99790.89;;;23.03;55.62
72096;BME280;59968;51.084;16.748;2023-05-23T11:02:27;99791.24;;;23.14;54.95
72096;BME280;59968;51.084;16.748;2023-05-23T11:05:22;99780.75;;;23.23;54.41
72096;BME280;59968;51.084;16.748;2023-05-23T11:08:11;99783.77;;;23.46;53.38
72096;BME280;59968;51.084;16.748;2023-05-23T11:11:01;99783.67;;;23.56;51.51
72096;BME280;59968;51.084;16.748;2023-05-23T11:16:39;99773.66;;;23.78;52.61
72096;BME280;59968;51.084;16.748;2023-05-23T11:22:00;99789.14;;;24.19;52.24
72096;BME280;59968;51.084;16.748;2023-05-23T11:24:51;99788.29;;;24.31;51.58
72096;BME280;59968;51.084;16.748;2023-05-23T11:27:36;99788.17;;;24.38;50.66
72096;BME280;59968;51.084;16.748;2023-05-23T11:30:17;99786.42;;;24.31;50.43
72096;BME280;59968;51.084;16.748;2023-05-23T11:32:51;99785.77;;;24.27;50.99
72096;BME280;59968;51.084;16.748;2023-05-23T11:35:20;99779.95;;;24.23;50.56
72096;BME280;59968;51.084;16.748;2023-05-23T11:37:51;99783.41;;;24.22;50.60
72096;BME280;59968;51.084;16.748;2023-05-23T11:40:31;99777.17;;;24.23;50.67
72096;BME280;59968;51.084;16.748;2023-05-23T11:43:06;99778.16;;;24.35;50.68
72096;BME280;59968;51.084;16.748;2023-05-23T11:45:37;99776.80;;;24.40;50.41
72096;BME280;59968;51.084;16.748;2023-05-23T11:48:07;99780.05;;;24.39;50.35
72096;BME280;59968;51.084;16.748;2023-05-23T11:51:03;99773.90;;;24.39;50.81
72096;BME280;59968;51.084;16.748;2023-05-23T11:53:34;99777.00;;;24.46;50.70
72096;BME280;59968;51.084;16.748;2023-05-23T11:56:04;99777.77;;;24.51;50.72
72096;BME280;59968;51.084;16.748;2023-05-23T11:58:34;99778.41;;;24.54;50.54
72096;BME280;59968;51.084;16.748;2023-05-23T12:01:08;99783.29;;;24.56;50.60
72096;BME280;59968;51.084;16.748;2023-05-23T12:03:49;99778.37;;;24.53;49.67
72096;BME280;59968;51.084;16.748;2023-05-23T12:06:21;99777.23;;;24.55;50.20
72096;BME280;59968;51.084;16.748;2023-05-23T12:08:52;99783.69;;;24.58;50.45
72096;BME280;59968;51.084;16.748;2023-05-23T12:11:21;99782.20;;;24.58;49.51
72096;BME280;59968;51.084;16.748;2023-05-23T12:13:51;99786.61;;;24.57;50.16
72096;BME280;59968;51.084;16.748;2023-05-23T12:16:21;99787.48;;;24.62;50.07
72096;BME280;59968;51.084;16.748;2023-05-23T12:18:51;99784.16;;;24.66;48.58
72096;BME280;59968;51.084;16.748;2023-05-23T12:21:24;99783.60;;;24.63;48.24
72096;BME280;59968;51.084;16.748;2023-05-23T12:23:53;99783.89;;;24.64;49.19
72096;BME280;59968;51.084;16.748;2023-05-23T12:26:22;99782.64;;;24.71;49.25
72096;BME280;59968;51.084;16.748;2023-05-23T12:28:51;99784.22;;;24.79;49.18
72096;BME280;59968;51.084;16.748;2023-05-23T12:31:21;99782.60;;;24.85;49.29
72096;BME280;59968;51.084;16.748;2023-05-23T12:33:52;99779.63;;;24.88;49.79
72096;BME280;59968;51.084;16.748;2023-05-23T12:36:22;99777.45;;;24.89;49.71
72096;BME280;59968;51.084;16.748;2023-05-23T12:38:52;99776.05;;;24.84;49.53
72096;BME280;59968;51.084;16.748;2023-05-23T12:41:21;99772.00;;;24.73;49.22
72096;BME280;59968;51.084;16.748;2023-05-23T12:43:54;99774.73;;;24.60;48.68
72096;BME280;59968;51.084;16.748;2023-05-23T12:46:24;99765.02;;;24.37;49.14
72096;BME280;59968;51.084;16.748;2023-05-23T12:48:53;99762.63;;;24.26;49.64
72096;BME280;59968;51.084;16.748;2023-05-23T12:51:22;99757.76;;;24.20;49.50
72096;BME280;59968;51.084;16.748;2023-05-23T12:53:51;99759.50;;;24.23;49.94
72096;BME280;59968;51.084;16.748;2023-05-23T12:56:20;99760.96;;;24.27;49.75
72096;BME280;59968;51.084;16.748;2023-05-23T12:58:49;99756.26;;;24.38;50.05
72096;BME280;59968;51.084;16.748;2023-05-23T13:01:19;99750.99;;;24.57;49.49
72096;BME280;59968;51.084;16.748;2023-05-23T13:03:48;99748.77;;;24.65;49.10
72096;BME280;59968;51.084;16.748;2023-05-23T13:06:19;99743.73;;;24.71;48.47
72096;BME280;59968;51.084;16.748;2023-05-23T13:08:49;99738.25;;;24.86;48.34
72096;BME280;59968;51.084;16.748;2023-05-23T13:11:19;99738.75;;;25.00;48.82
72096;BME280;59968;51.084;16.748;2023-05-23T13:13:50;99733.89;;;25.04;48.00
72096;BME280;59968;51.084;16.748;2023-05-23T13:16:21;99727.09;;;25.07;48.16
72096;BME280;59968;51.084;16.748;2023-05-23T13:18:51;99728.31;;;25.10;47.31
72096;BME280;59968;51.084;16.748;2023-05-23T13:21:19;99733.21;;;25.03;47.19
72096;BME280;59968;51.084;16.748;2023-05-23T13:23:49;99734.13;;;25.03;47.85
72096;BME280;59968;51.084;16.748;2023-05-23T13:26:18;99734.72;;;24.97;47.29
72096;BME280;59968;51.084;16.748;2023-05-23T13:28:47;99736.55;;;24.88;48.05
72096;BME280;59968;51.084;16.748;2023-05-23T13:31:15;99742.56;;;24.76;47.39
72096;BME280;59968;51.084;16.748;2023-05-23T13:33:44;99742.13;;;24.60;47.95
72096;BME280;59968;51.084;16.748;2023-05-23T13:36:14;99742.39;;;24.37;48.97
72096;BME280;59968;51.084;16.748;2023-05-23T13:38:42;99742.77;;;24.24;49.81
72096;BME280;59968;51.084;16.748;2023-05-23T13:41:11;99741.59;;;24.17;50.52
72096;BME280;59968;51.084;16.748;2023-05-23T13:43:39;99742.02;;;24.14;50.71